createdAt,value
2023-05-18T00:00:16.446Z,100.00
2023-05-18T00:05:43.117Z,100.00
2023-05-18T00:10:48.933Z,100.00
2023-05-18T00:15:53.103Z,100.00
2023-05-18T00:20:59.181Z,100.00
2023-05-18T00:26:04.915Z,100.00
2023-05-18T00:31:09.117Z,100.00
2023-05-18T00:36:13.710Z,100.00
2023-05-18T00:41:19.811Z,100.00
2023-05-18T00:46:25.405Z,100.00
2023-05-18T00:51:31.129Z,100.00
2023-05-18T00:56:42.138Z,100.00
2023-05-18T01:01:47.130Z,100.00
2023-05-18T01:06:56.790Z,100.00
2023-05-18T01:12:13.743Z,100.00
2023-05-18T01:17:27.569Z,100.00
2023-05-18T01:22:42.956Z,100.00
2023-05-18T01:27:49.770Z,100.00
2023-05-18T01:32:54.624Z,100.00
2023-05-18T01:37:59.161Z,100.00
2023-05-18T01:43:12.314Z,100.00
2023-05-18T01:48:24.084Z,100.00
2023-05-18T01:53:35.855Z,100.00
2023-05-18T01:58:42.066Z,100.00
2023-05-18T02:03:46.698Z,100.00
2023-05-18T02:08:52.135Z,100.00
2023-05-18T02:13:57.935Z,100.00
2023-05-18T02:19:02.200Z,100.00
2023-05-18T02:24:08.660Z,100.00
2023-05-18T02:29:14.938Z,100.00
2023-05-18T02:34:20.169Z,100.00
2023-05-18T02:39:24.464Z,100.00
2023-05-18T02:44:30.491Z,100.00
2023-05-18T02:49:34.957Z,100.00
2023-05-18T02:54:39.146Z,100.00
2023-05-18T02:59:51.841Z,100.00
2023-05-18T03:04:57.678Z,100.00
2023-05-18T03:10:04.436Z,100.00
2023-05-18T03:15:14.012Z,100.00
2023-05-18T03:20:20.086Z,100.00
2023-05-18T03:25:25.684Z,100.00
2023-05-18T03:30:33.225Z,100.00
2023-05-18T03:35:37.964Z,100.00
2023-05-18T03:40:42.481Z,100.00
2023-05-18T03:45:48.832Z,100.00
2023-05-18T03:50:53.706Z,100.00
2023-05-18T03:55:58.474Z,100.00
2023-05-18T04:01:04.358Z,100.00
2023-05-18T04:06:10.608Z,100.00
2023-05-18T04:11:15.027Z,100.00
2023-05-18T04:16:22.213Z,100.00
2023-05-18T04:21:26.488Z,100.00
2023-05-18T04:26:30.719Z,100.00
2023-05-18T04:31:36.578Z,100.00
2023-05-18T04:36:42.911Z,100.00
2023-05-18T04:41:47.536Z,100.00
2023-05-18T04:46:54.004Z,100.00
2023-05-18T04:52:00.153Z,100.00
2023-05-18T04:57:05.193Z,100.00
2023-05-18T05:02:10.992Z,100.00
2023-05-18T05:07:15.683Z,100.00
2023-05-18T05:12:22.790Z,100.00
2023-05-18T05:17:28.386Z,100.00
2023-05-18T05:22:32.664Z,100.00
2023-05-18T05:27:36.947Z,100.00
2023-05-18T05:32:42.849Z,100.00
2023-05-18T05:37:48.045Z,100.00
2023-05-18T05:42:53.888Z,100.00
2023-05-18T05:47:59.820Z,100.00
2023-05-18T05:53:04.195Z,100.00
2023-05-18T05:58:12.175Z,100.00
2023-05-18T06:03:19.389Z,100.00
2023-05-18T06:08:24.574Z,100.00
2023-05-18T06:13:29.619Z,100.00
2023-05-18T06:18:36.813Z,100.00
2023-05-18T06:23:42.931Z,100.00
2023-05-18T06:29:16.305Z,98.24
2023-05-18T06:34:39.934Z,96.10
2023-05-18T06:39:44.738Z,95.46
2023-05-18T06:44:50.640Z,95.98
2023-05-18T06:49:58.429Z,94.88
2023-05-18T06:55:04.159Z,93.42
2023-05-18T07:00:10.601Z,91.32
2023-05-18T07:05:17.230Z,90.58
2023-05-18T07:10:22.833Z,90.15
2023-05-18T07:15:27.218Z,88.03
2023-05-18T07:20:33.062Z,86.80
2023-05-18T07:25:37.569Z,83.85
2023-05-18T07:30:42.370Z,83.34
2023-05-18T07:35:48.097Z,78.69
2023-05-18T07:40:52.405Z,79.72
2023-05-18T07:45:56.742Z,74.84
2023-05-18T07:51:02.580Z,77.08
2023-05-18T07:56:07.824Z,75.54
2023-05-18T08:01:12.263Z,75.64
2023-05-18T08:06:18.052Z,75.02
2023-05-18T08:11:22.724Z,75.00
2023-05-18T08:16:27.148Z,74.97
2023-05-18T08:21:33.381Z,75.59
2023-05-18T08:26:38.039Z,74.63
2023-05-18T08:31:42.997Z,75.04
2023-05-18T08:36:49.064Z,74.97
2023-05-18T08:41:59.491Z,75.21
2023-05-18T08:47:10.582Z,73.48
2023-05-18T08:52:20.008Z,70.73
2023-05-18T08:57:25.433Z,71.11
2023-05-18T09:02:31.312Z,70.04
2023-05-18T09:07:38.668Z,69.34
2023-05-18T09:12:46.459Z,69.35
2023-05-18T09:17:51.020Z,68.15
2023-05-18T09:22:57.192Z,68.15
2023-05-18T09:28:02.264Z,68.88
2023-05-18T09:33:06.933Z,67.08
2023-05-18T09:38:13.794Z,68.80
2023-05-18T09:43:19.687Z,65.56
2023-05-18T09:48:25.444Z,67.98
2023-05-18T09:53:31.489Z,67.89
2023-05-18T09:58:36.175Z,68.43
2023-05-18T10:03:40.727Z,68.05
2023-05-18T10:08:47.044Z,68.20
2023-05-18T10:13:55.555Z,69.04
2023-05-18T10:19:02.574Z,67.30
2023-05-18T10:24:11.393Z,68.03
2023-05-18T10:29:16.917Z,68.24
2023-05-18T10:34:24.719Z,66.58
2023-05-18T10:39:30.865Z,67.44
2023-05-18T10:44:37.505Z,66.61
2023-05-18T10:49:44.029Z,67.19
2023-05-18T10:54:50.325Z,67.02
2023-05-18T10:59:55.019Z,67.79
2023-05-18T11:04:59.331Z,72.92
2023-05-18T11:10:10.512Z,74.12
2023-05-18T11:15:15.037Z,72.89
2023-05-18T11:20:19.779Z,73.59
2023-05-18T11:25:45.107Z,74.46
2023-05-18T11:30:52.995Z,72.24
2023-05-18T11:36:07.520Z,69.72
2023-05-18T11:41:29.474Z,68.46
2023-05-18T11:46:34.500Z,72.70
2023-05-18T11:51:58.877Z,71.53
2023-05-18T11:57:05.065Z,73.69
2023-05-18T12:02:11.930Z,76.72
2023-05-18T12:07:16.880Z,74.27
2023-05-18T12:12:24.424Z,74.42
2023-05-18T12:17:40.515Z,74.18
2023-05-18T12:22:46.573Z,75.07
2023-05-18T12:27:54.006Z,73.78
2023-05-18T12:32:59.353Z,75.97
2023-05-18T12:38:03.707Z,78.99
2023-05-18T12:43:09.686Z,79.65
2023-05-18T12:48:15.401Z,79.62
2023-05-18T12:53:20.609Z,82.14
2023-05-18T12:58:26.596Z,83.43
2023-05-18T13:03:35.455Z,81.05
2023-05-18T13:08:39.644Z,84.50
2023-05-18T13:14:00.736Z,83.08
2023-05-18T13:19:07.101Z,85.03
2023-05-18T13:24:11.892Z,85.76
2023-05-18T13:29:17.993Z,84.86
2023-05-18T13:34:22.312Z,85.60
2023-05-18T13:39:26.696Z,87.33
2023-05-18T13:44:32.576Z,88.78
2023-05-18T13:49:36.811Z,88.42
2023-05-18T13:54:41.405Z,89.67
2023-05-18T13:59:47.634Z,92.99
2023-05-18T14:04:53.004Z,95.59
2023-05-18T14:09:57.200Z,95.68
2023-05-18T14:15:03.508Z,92.72
2023-05-18T14:20:09.387Z,96.29
2023-05-18T14:25:13.954Z,96.80
2023-05-18T14:30:19.659Z,94.90
2023-05-18T14:35:24.312Z,95.42
2023-05-18T14:40:28.685Z,98.13
2023-05-18T14:45:34.387Z,100.00
2023-05-18T14:50:39.621Z,99.65
2023-05-18T14:55:44.163Z,95.98
2023-05-18T15:00:49.879Z,93.19
2023-05-18T15:05:54.393Z,91.91
2023-05-18T15:10:58.618Z,83.69
2023-05-18T15:16:04.445Z,81.28
2023-05-18T15:21:08.932Z,83.50
2023-05-18T15:26:14.097Z,81.05
2023-05-18T15:31:20.037Z,82.85
2023-05-18T15:36:25.655Z,85.42
2023-05-18T15:41:33.923Z,85.00
2023-05-18T15:46:39.701Z,86.91
2023-05-18T15:51:43.846Z,87.60
2023-05-18T15:56:48.065Z,86.50
2023-05-18T16:01:53.798Z,88.86
2023-05-18T16:06:58.134Z,92.73
2023-05-18T16:12:02.581Z,91.39
2023-05-18T16:17:08.537Z,94.24
2023-05-18T16:22:13.118Z,94.72
2023-05-18T16:27:17.533Z,95.86
2023-05-18T16:32:23.312Z,99.02
2023-05-18T16:37:27.616Z,99.42
2023-05-18T16:42:32.114Z,98.93
2023-05-18T16:47:37.817Z,99.53
2023-05-18T16:52:42.143Z,99.48
2023-05-18T16:57:46.513Z,100.00
2023-05-18T17:02:52.900Z,98.79
2023-05-18T17:07:57.476Z,99.75
2023-05-18T17:13:01.896Z,98.67
2023-05-18T17:18:07.764Z,99.96
2023-05-18T17:23:17.563Z,100.00
2023-05-18T17:28:22.036Z,100.00
2023-05-18T17:33:27.697Z,100.00
2023-05-18T17:38:34.522Z,100.00
2023-05-18T17:43:38.977Z,100.00
2023-05-18T17:48:44.807Z,100.00
2023-05-18T17:53:48.989Z,100.00
2023-05-18T17:58:54.194Z,100.00
2023-05-18T18:04:00.352Z,100.00
2023-05-18T18:09:06.535Z,100.00
2023-05-18T18:14:11.866Z,100.00
2023-05-18T18:19:17.914Z,100.00
2023-05-18T18:24:24.019Z,100.00
2023-05-18T18:29:29.995Z,100.00
2023-05-18T18:34:35.951Z,100.00
2023-05-18T18:39:40.395Z,100.00
2023-05-18T18:44:44.753Z,100.00
2023-05-18T18:49:50.429Z,100.00
2023-05-18T18:54:54.800Z,100.00
2023-05-18T19:00:01.132Z,100.00
2023-05-18T19:05:08.054Z,100.00
2023-05-18T19:10:12.848Z,100.00
2023-05-18T19:15:17.281Z,100.00
2023-05-18T19:20:24.175Z,100.00
2023-05-18T19:25:30.290Z,100.00
2023-05-18T19:30:34.758Z,100.00
2023-05-18T19:35:40.446Z,100.00
2023-05-18T19:40:45.177Z,100.00
2023-05-18T19:45:50.351Z,100.00
2023-05-18T19:50:56.861Z,100.00
2023-05-18T19:56:01.290Z,100.00
2023-05-18T20:01:05.663Z,100.00
2023-05-18T20:06:11.503Z,100.00
2023-05-18T20:11:16.250Z,100.00
2023-05-18T20:16:20.825Z,100.00
2023-05-18T20:21:26.522Z,100.00
2023-05-18T20:26:32.148Z,100.00
2023-05-18T20:31:37.285Z,100.00
2023-05-18T20:36:43.148Z,100.00
2023-05-18T20:41:48.057Z,100.00
2023-05-18T20:46:53.311Z,100.00
2023-05-18T20:51:59.151Z,100.00
2023-05-18T20:57:04.248Z,100.00
2023-05-18T21:02:12.009Z,100.00
2023-05-18T21:07:18.340Z,100.00
2023-05-18T21:12:22.587Z,100.00
2023-05-18T21:17:26.981Z,100.00
2023-05-18T21:22:32.747Z,100.00
2023-05-18T21:27:37.709Z,100.00
2023-05-18T21:32:43.811Z,100.00
2023-05-18T21:37:49.854Z,100.00
2023-05-18T21:42:54.312Z,100.00
2023-05-18T21:47:58.565Z,100.00
2023-05-18T21:53:04.602Z,100.00
2023-05-18T21:58:08.999Z,100.00
2023-05-18T22:03:13.315Z,100.00
2023-05-18T22:08:20.326Z,100.00
2023-05-18T22:13:24.720Z,100.00
2023-05-18T22:18:29.030Z,100.00
2023-05-18T22:23:34.937Z,100.00
2023-05-18T22:28:41.003Z,100.00
2023-05-18T22:33:45.177Z,100.00
2023-05-18T22:38:52.578Z,100.00
2023-05-18T22:43:57.151Z,100.00
2023-05-18T22:49:01.758Z,100.00
2023-05-18T22:54:07.492Z,100.00
2023-05-18T22:59:12.140Z,100.00
2023-05-18T23:04:19.870Z,100.00
2023-05-18T23:09:27.190Z,100.00
2023-05-18T23:14:33.993Z,100.00
2023-05-18T23:19:39.576Z,100.00
2023-05-18T23:24:45.355Z,100.00
2023-05-18T23:29:49.773Z,100.00
2023-05-18T23:34:56.404Z,100.00
2023-05-18T23:40:04.078Z,100.00
2023-05-18T23:45:09.915Z,100.00
2023-05-18T23:50:16.459Z,100.00
2023-05-18T23:55:24.438Z,100.00
